Time;durP1;ratioP1;P1;durP2;ratioP2;P2;SDS_P1;SDS_P2;PMS_P1;PMS_P2;Temp;Humidity;BMP_temperature;BMP_pressure;BME280_temperature;BME280_humidity;BME280_pressure;Samples;Min_cycle;Max_cycle;Signal;HPM_P1;HPM_P2
2021/09/13 00:01:23;;;;;;;4.83;3.80;;;;;;;13.67;83.07;95804.66;6173265;23;20151;-78
2021/09/13 00:03:48;;;;;;;3.77;3.47;;;;;;;13.68;82.88;95798.47;6172359;23;20647;-77
2021/09/13 00:06:13;;;;;;;4.23;3.30;;;;;;;13.67;82.95;95789.81;6148042;23;20231;-78
2021/09/13 00:08:39;;;;;;;3.63;3.33;;;;;;;13.64;82.90;95792.75;6171527;23;20206;-79
2021/09/13 00:11:04;;;;;;;3.87;3.57;;;;;;;13.63;82.95;95795.53;6148041;23;20172;-78
2021/09/13 00:13:29;;;;;;;3.57;3.27;;;;;;;13.64;82.83;95795.38;6170557;23;20257;-77
2021/09/13 00:15:55;;;;;;;3.00;2.80;;;;;;;13.60;82.89;95789.66;6169928;23;20203;-78
2021/09/13 00:18:20;;;;;;;3.77;3.47;;;;;;;13.59;82.96;95792.41;6144487;23;20214;-77
2021/09/13 00:20:45;;;;;;;3.43;3.13;;;;;;;13.58;82.80;95802.03;6170460;23;20213;-78
2021/09/13 00:23:11;;;;;;;3.80;3.50;;;;;;;13.56;82.93;95795.34;6144890;23;20183;-78
2021/09/13 00:25:36;;;;;;;3.83;3.20;;;;;;;13.50;83.43;95788.16;6169673;23;20171;-79
2021/09/13 00:28:01;;;;;;;3.73;3.00;;;;;;;13.45;83.27;95793.03;6168311;23;20155;-78
2021/09/13 00:30:27;;;;;;;3.67;3.33;;;;;;;13.43;83.57;95790.59;6171100;23;20152;-78
2021/09/13 00:32:52;;;;;;;4.87;3.00;;;;;;;13.42;83.33;95794.16;6169014;23;20601;-78
2021/09/13 00:35:18;;;;;;;3.77;3.23;;;;;;;13.36;83.40;95791.41;6168679;23;20182;-78
2021/09/13 00:37:43;;;;;;;3.47;3.20;;;;;;;13.38;83.41;95794.66;6168503;23;20151;-79
2021/09/13 00:40:09;;;;;;;4.83;3.77;;;;;;;13.37;83.49;95799.06;6167558;23;20151;-79
2021/09/13 00:42:34;;;;;;;3.53;3.23;;;;;;;13.35;83.48;95789.75;6144789;23;20159;-77
2021/09/13 00:45:01;;;;;;;3.90;3.60;;;;;;;13.31;83.63;95795.28;6167440;23;20183;-78
2021/09/13 00:47:26;;;;;;;4.13;3.60;;;;;;;13.27;83.23;95790.56;6167918;23;20162;-79
2021/09/13 00:49:51;;;;;;;5.73;3.67;;;;;;;13.23;83.96;95799.66;6168337;23;20491;-77
2021/09/13 00:52:17;;;;;;;4.47;3.77;;;;;;;13.19;83.65;95793.94;6167470;23;20159;-79
2021/09/13 00:54:43;;;;;;;6.60;3.40;;;;;;;13.15;84.23;95794.38;6165957;23;20205;-78
2021/09/13 00:57:08;;;;;;;4.33;3.63;;;;;;;13.12;84.18;95790.28;6168212;23;20140;-78
2021/09/13 00:59:33;;;;;;;3.80;3.47;;;;;;;13.10;84.68;95791.44;6167054;23;20158;-77
2021/09/13 01:01:59;;;;;;;4.80;3.73;;;;;;;13.08;85.05;95788.19;6143360;23;20174;-78
2021/09/13 01:04:24;;;;;;;3.40;3.20;;;;;;;13.09;84.93;95785.41;6164609;23;20185;-77
2021/09/13 01:06:49;;;;;;;4.07;3.37;;;;;;;13.08;85.13;95780.34;6142592;23;20179;-78
2021/09/13 01:09:15;;;;;;;4.20;3.90;;;;;;;13.03;85.10;95781.63;6168342;23;20151;-77
2021/09/13 01:11:41;;;;;;;4.70;3.43;;;;;;;13.00;85.60;95779.34;6166573;23;20166;-80
2021/09/13 01:14:06;;;;;;;4.73;4.17;;;;;;;12.97;84.77;95776.22;6140852;23;20155;-80
2021/09/13 01:16:32;;;;;;;4.33;3.43;;;;;;;12.98;85.24;95783.06;6141557;23;20680;-77
2021/09/13 01:18:57;;;;;;;5.30;3.97;;;;;;;12.94;85.61;95785.16;6167644;23;20178;-80
2021/09/13 01:21:23;;;;;;;4.53;4.10;;;;;;;12.94;85.83;95781.75;6165971;23;20167;-79
2021/09/13 01:23:48;;;;;;;4.00;3.60;;;;;;;12.92;85.72;95776.69;6140677;23;20183;-79
2021/09/13 01:26:14;;;;;;;3.67;3.30;;;;;;;12.90;85.54;95781.25;6167682;23;20198;-79
2021/09/13 01:28:39;;;;;;;4.23;3.83;;;;;;;12.90;85.89;95772.63;6165600;23;20191;-79
2021/09/13 01:31:05;;;;;;;4.10;3.70;;;;;;;12.86;86.18;95768.69;6163981;23;20210;-79
2021/09/13 01:33:30;;;;;;;4.23;3.93;;;;;;;12.88;86.31;95771.94;6139863;23;20211;-76
2021/09/13 01:35:56;;;;;;;3.90;3.10;;;;;;;12.89;86.07;95769.16;6139609;23;20179;-78
2021/09/13 01:38:24;;;;;;;4.00;3.60;;;;;;;12.90;85.90;95760.41;6166115;23;20214;-77
2021/09/13 01:40:50;;;;;;;4.07;3.77;;;;;;;12.87;85.96;95755.47;6164083;23;20155;-77
2021/09/13 01:43:15;;;;;;;4.27;3.33;;;;;;;12.86;85.97;95755.66;6165378;23;20522;-79
2021/09/13 01:45:41;;;;;;;4.10;3.70;;;;;;;12.88;85.86;95751.91;6164176;23;20226;-78
2021/09/13 01:48:07;;;;;;;5.17;3.60;;;;;;;12.90;85.67;95754.38;6142618;23;20151;-78
2021/09/13 01:50:32;;;;;;;3.97;3.57;;;;;;;12.94;85.59;95750.47;6140295;23;20175;-78
2021/09/13 01:52:58;;;;;;;3.83;3.53;;;;;;;12.97;85.39;95747.53;6140338;23;20152;-78
2021/09/13 01:55:23;;;;;;;3.97;3.50;;;;;;;13.00;85.36;95749.84;6139654;23;20203;-78
2021/09/13 01:57:48;;;;;;;7.57;3.73;;;;;;;12.99;85.27;95754.25;6165181;23;20159;-78
2021/09/13 02:00:14;;;;;;;4.20;3.63;;;;;;;13.02;85.42;95753.09;6140312;23;20166;-78
2021/09/13 02:02:40;;;;;;;3.70;3.37;;;;;;;13.01;85.20;95752.28;6139631;23;20214;-78
2021/09/13 02:05:06;;;;;;;4.87;3.83;;;;;;;13.02;85.37;95751.31;6163125;23;20170;-78
2021/09/13 02:07:31;;;;;;;5.77;3.93;;;;;;;13.03;85.41;95746.91;6166974;23;20159;-77
2021/09/13 02:09:56;;;;;;;3.80;3.50;;;;;;;13.01;85.14;95746.25;6164290;23;20163;-77
2021/09/13 02:12:22;;;;;;;4.37;3.60;;;;;;;12.99;85.37;95740.41;6164227;23;20163;-78
2021/09/13 02:14:48;;;;;;;6.07;3.77;;;;;;;12.99;85.50;95743.00;6163271;23;20554;-78
2021/09/13 02:17:13;;;;;;;3.93;3.63;;;;;;;13.01;85.74;95735.84;6164649;23;20546;-78
2021/09/13 02:19:39;;;;;;;4.97;3.80;;;;;;;13.00;85.69;95742.03;6139903;23;20170;-79
2021/09/13 02:22:04;;;;;;;4.07;3.67;;;;;;;13.01;85.90;95739.25;6139932;23;20156;-78
2021/09/13 02:24:29;;;;;;;3.63;3.33;;;;;;;13.06;85.74;95741.38;6138705;23;20214;-78
2021/09/13 02:26:55;;;;;;;4.73;3.80;;;;;;;13.10;85.55;95736.69;6139855;23;20609;-78
2021/09/13 02:29:20;;;;;;;5.10;3.83;;;;;;;13.14;85.54;95740.59;6165191;23;20616;-77
2021/09/13 02:31:46;;;;;;;5.17;3.77;;;;;;;13.15;85.45;95737.00;6165524;23;20209;-78
2021/09/13 02:34:11;;;;;;;4.47;3.90;;;;;;;13.19;85.50;95744.41;6165865;23;20163;-77
2021/09/13 02:36:37;;;;;;;4.17;3.77;;;;;;;13.21;85.34;95742.44;6141589;23;20214;-78
2021/09/13 02:39:03;;;;;;;5.10;3.83;;;;;;;13.30;85.08;95736.28;6140449;23;20222;-78
2021/09/13 02:41:28;;;;;;;4.47;4.07;;;;;;;13.36;85.23;95739.22;6166785;23;20202;-79
2021/09/13 02:43:53;;;;;;;4.87;4.37;;;;;;;13.47;84.63;95744.13;6171572;23;20183;-78
2021/09/13 02:46:20;;;;;;;4.57;3.87;;;;;;;13.51;84.60;95743.63;6170858;23;20175;-78
2021/09/13 02:48:45;;;;;;;5.43;4.17;;;;;;;13.57;84.30;95734.34;6160033;23;20290;-78
2021/09/13 02:51:11;;;;;;;4.37;3.97;;;;;;;13.65;83.93;95742.19;6160717;23;20155;-79
2021/09/13 02:53:36;;;;;;;4.73;3.67;;;;;;;13.76;83.63;95733.22;6135430;23;20589;-77
2021/09/13 02:56:01;;;;;;;4.87;4.47;;;;;;;13.80;83.65;95731.94;6136074;23;20205;-78
2021/09/13 02:58:27;;;;;;;3.97;3.63;;;;;;;13.86;83.25;95739.91;6135819;23;20163;-77
2021/09/13 03:00:52;;;;;;;4.13;3.73;;;;;;;13.93;82.82;95739.28;6136100;23;20189;-76
2021/09/13 03:03:17;;;;;;;5.50;3.70;;;;;;;13.98;82.63;95732.59;6160089;23;20517;-78
2021/09/13 03:05:43;;;;;;;4.63;3.93;;;;;;;13.98;82.66;95737.81;6135651;23;20179;-78
2021/09/13 03:08:08;;;;;;;3.97;3.67;;;;;;;14.01;82.32;95739.28;6136580;23;20163;-77
2021/09/13 03:10:33;;;;;;;4.53;3.83;;;;;;;13.99;82.14;95736.03;6136334;23;20162;-77
2021/09/13 03:12:59;;;;;;;5.63;3.97;;;;;;;13.95;82.30;95734.69;6160964;23;20147;-77
2021/09/13 03:15:24;;;;;;;5.77;4.07;;;;;;;13.88;82.18;95734.56;6136201;23;20234;-77
2021/09/13 03:17:50;;;;;;;4.03;3.23;;;;;;;13.88;82.31;95731.94;6136908;23;20159;-78
2021/09/13 03:20:15;;;;;;;4.33;3.93;;;;;;;13.83;82.26;95737.63;6161679;23;20601;-77
2021/09/13 03:22:40;;;;;;;5.45;3.65;;;;;;;13.84;82.34;95738.47;6160910;23;20155;-76
2021/09/13 03:25:06;;;;;;;4.23;3.83;;;;;;;13.82;82.54;95741.22;6136442;23;20232;-77
2021/09/13 03:27:32;;;;;;;4.43;3.60;;;;;;;13.84;82.36;95739.28;6137543;23;20167;-79
2021/09/13 03:29:57;;;;;;;3.90;3.50;;;;;;;13.84;82.33;95735.84;6163691;23;20162;-77
2021/09/13 03:32:23;;;;;;;4.60;4.03;;;;;;;13.87;82.24;95738.97;6143798;23;20178;-78
2021/09/13 03:34:48;;;;;;;6.13;3.40;;;;;;;13.88;82.36;95735.38;6168424;23;20250;-78
2021/09/13 03:37:13;;;;;;;3.53;3.23;;;;;;;13.96;82.06;95736.31;6167532;23;20151;-77
2021/09/13 03:39:39;;;;;;;3.80;3.40;;;;;;;13.96;82.02;95731.09;6165652;23;20161;-78
2021/09/13 03:42:04;;;;;;;3.60;3.30;;;;;;;13.94;82.02;95728.66;6168301;23;20147;-77
2021/09/13 03:44:30;;;;;;;3.30;3.10;;;;;;;13.92;81.86;95724.59;6164714;23;20609;-76
2021/09/13 03:46:55;;;;;;;4.73;3.40;;;;;;;13.86;82.10;95724.25;6165937;23;20152;-78
2021/09/13 03:49:21;;;;;;;4.10;3.77;;;;;;;13.86;82.38;95724.25;6167114;23;20165;-77
2021/09/13 03:51:46;;;;;;;3.60;3.30;;;;;;;13.83;82.14;95723.78;6165983;23;20151;-78
2021/09/13 03:54:12;;;;;;;3.90;3.60;;;;;;;13.81;82.51;95725.75;6165379;23;20152;-78
2021/09/13 03:56:37;;;;;;;4.00;3.70;;;;;;;13.78;82.55;95726.03;6167154;23;20174;-78
2021/09/13 03:59:02;;;;;;;4.20;3.23;;;;;;;13.77;82.12;95725.22;6173686;23;20174;-76
2021/09/13 04:01:28;;;;;;;4.70;3.80;;;;;;;13.77;82.58;95717.41;6171032;23;20155;-78
2021/09/13 04:03:56;;;;;;;4.07;3.60;;;;;;;13.71;82.71;95717.25;6151016;23;20202;-78
2021/09/13 04:14:02;;;;;;;4.37;3.97;;;;;;;13.61;83.13;95717.41;6164634;23;20461;-77
2021/09/13 04:16:27;;;;;;;3.83;3.37;;;;;;;13.64;83.21;95724.09;6163328;23;20182;-77
2021/09/13 04:18:53;;;;;;;4.33;3.70;;;;;;;13.64;83.05;95719.69;6163374;23;20155;-78
2021/09/13 04:21:18;;;;;;;3.67;3.40;;;;;;;13.64;83.06;95711.06;6162583;23;20155;-77
2021/09/13 04:23:43;;;;;;;4.10;3.80;;;;;;;13.65;83.27;95723.94;6137401;23;20202;-76
2021/09/13 04:26:08;;;;;;;4.03;3.53;;;;;;;13.66;83.15;95715.13;6162022;23;20179;-78
2021/09/13 04:28:34;;;;;;;5.27;3.70;;;;;;;13.68;83.30;95717.56;6162442;23;20167;-78
2021/09/13 04:30:59;;;;;;;4.40;4.00;;;;;;;13.72;83.04;95719.69;6162007;23;20155;-76
2021/09/13 04:33:24;;;;;;;5.47;4.03;;;;;;;13.73;82.80;95710.88;6138649;23;20163;-77
2021/09/13 04:35:50;;;;;;;3.97;3.50;;;;;;;13.76;83.23;95717.56;6161662;23;20171;-78
2021/09/13 04:38:16;;;;;;;4.87;3.57;;;;;;;13.75;83.33;95714.16;6162819;23;20151;-78
2021/09/13 04:40:41;;;;;;;4.07;3.70;;;;;;;13.76;83.19;95717.56;6162523;23;20174;-77
2021/09/13 04:43:06;;;;;;;3.60;3.30;;;;;;;13.75;83.38;95718.56;6161652;23;20183;-77
2021/09/13 04:45:32;;;;;;;4.77;3.37;;;;;;;13.73;83.47;95705.66;6137330;23;20183;-77
2021/09/13 04:47:57;;;;;;;4.23;3.50;;;;;;;13.75;83.55;95719.38;6163682;23;20158;-78
2021/09/13 04:50:22;;;;;;;3.70;3.40;;;;;;;13.74;83.51;95719.53;6138641;23;20508;-78
2021/09/13 04:52:47;;;;;;;3.67;3.37;;;;;;;13.75;83.70;95724.59;6138551;23;20162;-76
2021/09/13 04:55:13;;;;;;;4.27;3.87;;;;;;;13.76;83.67;95721.00;6162986;23;20198;-77
2021/09/13 04:57:38;;;;;;;3.53;3.23;;;;;;;13.78;83.69;95718.22;6165409;23;20155;-77
2021/09/13 05:00:04;;;;;;;5.10;3.95;;;;;;;13.79;83.61;95718.06;6141688;23;20160;-78
2021/09/13 05:02:29;;;;;;;3.90;3.60;;;;;;;13.82;83.23;95717.75;6141533;23;20166;-78
2021/09/13 05:04:56;;;;;;;3.50;3.20;;;;;;;13.82;83.43;95716.94;6166398;23;20172;-77
2021/09/13 05:07:21;;;;;;;4.13;3.70;;;;;;;13.83;83.19;95724.59;6166709;23;20152;-79
2021/09/13 05:09:47;;;;;;;4.28;3.97;;;;;;;13.83;83.46;95723.78;6165533;23;20158;-79
2021/09/13 05:12:12;;;;;;;4.90;3.57;;;;;;;13.85;83.23;95721.81;6165457;23;20609;-77
2021/09/13 05:14:37;;;;;;;4.10;3.70;;;;;;;13.83;83.51;95724.59;6139537;23;20181;-79
2021/09/13 05:17:03;;;;;;;3.93;3.63;;;;;;;13.81;83.70;95723.94;6165004;23;20249;-77
2021/09/13 05:19:28;;;;;;;4.53;3.80;;;;;;;13.78;83.87;95716.44;6165769;23;20254;-76
2021/09/13 05:21:53;;;;;;;5.03;4.07;;;;;;;13.76;84.18;95726.22;6167890;23;20171;-79
2021/09/13 05:24:19;;;;;;;5.37;3.80;;;;;;;13.77;84.29;95724.41;6165044;23;20175;-78
2021/09/13 05:26:44;;;;;;;7.53;4.23;;;;;;;13.79;84.22;95727.72;6166503;23;20152;-78
2021/09/13 05:29:09;;;;;;;5.93;3.60;;;;;;;13.80;84.23;95721.50;6164628;23;20186;-77
2021/09/13 05:31:35;;;;;;;4.10;3.70;;;;;;;13.83;83.99;95721.16;6165491;23;20605;-78
2021/09/13 05:34:00;;;;;;;4.50;4.10;;;;;;;13.89;83.67;95721.34;6165171;23;20147;-79
2021/09/13 05:36:25;;;;;;;5.33;3.50;;;;;;;14.01;83.41;95723.59;6140668;23;20214;-77
2021/09/13 05:38:51;;;;;;;4.10;3.73;;;;;;;14.11;82.84;95724.25;6163802;23;20151;-79
2021/09/13 05:41:16;;;;;;;4.35;3.33;;;;;;;14.26;82.29;95721.78;6163956;23;20151;-78
2021/09/13 05:43:41;;;;;;;4.43;3.87;;;;;;;14.33;81.37;95718.34;6163043;23;20257;-78
2021/09/13 05:46:07;;;;;;;4.27;3.60;;;;;;;14.43;81.31;95728.63;6139221;23;20179;-76
2021/09/13 05:48:32;;;;;;;3.50;3.20;;;;;;;14.51;81.04;95725.19;6163918;23;20167;-78
2021/09/13 05:50:57;;;;;;;3.63;3.28;;;;;;;14.59;80.95;95730.41;6165282;23;20605;-77
2021/09/13 05:53:23;;;;;;;3.17;2.88;;;;;;;14.63;80.63;95726.47;6164668;23;20155;-77
2021/09/13 05:55:48;;;;;;;6.85;3.22;;;;;;;14.67;80.47;95733.81;6163371;23;20187;-78
2021/09/13 05:58:13;;;;;;;3.25;2.95;;;;;;;14.74;80.54;95742.59;6139522;23;20159;-77
2021/09/13 06:00:40;;;;;;;3.13;2.83;;;;;;;14.74;80.03;95737.38;6165535;23;20190;-77
2021/09/13 06:03:08;;;;;;;3.33;3.10;;;;;;;14.76;79.73;95736.41;6140375;23;20262;-77
2021/09/13 06:05:33;;;;;;;4.07;3.10;;;;;;;14.85;79.81;95738.81;6163667;23;20274;-78
2021/09/13 06:07:58;;;;;;;3.20;2.90;;;;;;;15.02;79.22;95737.78;6166252;23;20151;-76
2021/09/13 06:10:24;;;;;;;4.00;3.22;;;;;;;15.17;78.80;95734.41;6141723;23;20159;-77
2021/09/13 06:12:49;;;;;;;3.33;3.03;;;;;;;15.29;78.48;95731.25;6167130;23;20147;-77
2021/09/13 06:15:15;;;;;;;3.20;2.90;;;;;;;15.46;77.50;95731.13;6140909;23;20195;-78
2021/09/13 06:17:40;;;;;;;2.80;2.58;;;;;;;15.68;76.32;95734.81;6165750;23;20158;-77
2021/09/13 06:20:06;;;;;;;4.15;3.00;;;;;;;15.77;75.57;95733.75;6142416;23;20205;-77
2021/09/13 06:22:31;;;;;;;3.28;2.88;;;;;;;15.77;74.55;95742.44;6166379;23;20214;-76
2021/09/13 06:24:57;;;;;;;3.72;2.95;;;;;;;15.98;74.30;95744.38;6140322;23;20206;-77
2021/09/13 06:27:22;;;;;;;3.25;2.63;;;;;;;16.16;73.43;95746.69;6166609;23;20183;-78
2021/09/13 06:29:47;;;;;;;3.88;2.67;;;;;;;16.34;72.05;95746.38;6167993;23;20633;-77
2021/09/13 06:32:13;;;;;;;3.33;3.00;;;;;;;16.56;72.17;95747.31;6173451;23;20165;-78
2021/09/13 06:34:38;;;;;;;2.85;2.60;;;;;;;16.76;70.99;95745.00;6173723;23;20163;-79
2021/09/13 06:37:04;;;;;;;2.67;2.42;;;;;;;16.89;70.52;95750.44;6149948;23;20210;-77
2021/09/13 06:39:29;;;;;;;2.75;2.55;;;;;;;16.97;69.67;95752.97;6171956;23;20257;-78
2021/09/13 06:41:54;;;;;;;2.70;2.50;;;;;;;17.09;69.51;95755.94;6173665;23;20155;-76
2021/09/13 06:44:23;;;;;;;2.80;2.60;;;;;;;17.05;69.32;95755.50;6171643;23;20647;-78
2021/09/13 06:47:20;;;;;;;3.10;2.80;;;;;;;17.06;68.80;95759.75;6171414;23;20222;-79
2021/09/13 06:49:36;;;;;;;4.43;2.50;;;;;;;17.05;68.61;95755.50;6172052;23;20163;-77
2021/09/13 06:52:03;;;;;;;3.97;2.58;;;;;;;17.25;68.19;95753.09;6170705;23;20158;-78
2021/09/13 06:54:28;;;;;;;3.10;2.80;;;;;;;17.08;67.35;95759.56;6170359;23;20170;-79
2021/09/13 06:56:55;;;;;;;5.45;2.95;;;;;;;16.98;68.00;95752.78;6171587;23;20143;-77
2021/09/13 06:59:21;;;;;;;2.70;2.50;;;;;;;17.06;68.42;95751.88;6145949;23;20214;-77
2021/09/13 07:01:46;;;;;;;2.65;2.45;;;;;;;16.93;68.18;95757.75;6169984;23;20195;-78
2021/09/13 07:04:11;;;;;;;4.20;2.42;;;;;;;17.13;67.14;95757.19;6171263;23;20191;-77
2021/09/13 07:06:37;;;;;;;5.03;2.70;;;;;;;17.07;67.10;95750.06;6170423;23;20256;-77
2021/09/13 07:09:02;;;;;;;2.95;2.53;;;;;;;16.96;67.42;95757.41;6145164;23;20155;-77
2021/09/13 07:11:28;;;;;;;2.95;2.65;;;;;;;17.02;67.10;95762.91;6169898;23;20229;-77
2021/09/13 07:13:54;;;;;;;4.50;2.95;;;;;;;16.97;67.62;95764.28;6168674;23;20190;-78
2021/09/13 07:16:22;;;;;;;3.42;2.75;;;;;;;16.98;67.53;95767.72;6169146;23;20544;-77
2021/09/13 07:18:48;;;;;;;3.38;2.72;;;;;;;17.04;67.05;95766.97;6168581;23;20186;-77
2021/09/13 07:21:13;;;;;;;2.58;2.38;;;;;;;17.18;66.22;95763.53;6144079;23;20159;-80
2021/09/13 07:23:39;;;;;;;2.88;2.60;;;;;;;17.05;66.21;95771.25;6167384;23;20194;-79
2021/09/13 07:26:04;;;;;;;2.45;2.20;;;;;;;17.13;66.33;95771.13;6168319;23;20175;-78
2021/09/13 07:28:29;;;;;;;3.20;2.90;;;;;;;17.17;66.43;95772.41;6166023;23;20159;-78
2021/09/13 07:30:55;;;;;;;2.70;2.50;;;;;;;17.31;66.22;95769.91;6165343;23;20213;-79
2021/09/13 07:33:20;;;;;;;6.75;3.05;;;;;;;17.22;66.18;95772.63;6140063;23;20202;-78
2021/09/13 07:35:45;;;;;;;3.00;2.70;;;;;;;17.37;66.20;95775.25;6164301;23;20175;-78
2021/09/13 07:38:11;;;;;;;3.15;2.80;;;;;;;17.39;65.75;95775.88;6164894;23;20492;-79
2021/09/13 07:40:36;;;;;;;2.67;2.47;;;;;;;17.40;65.66;95774.06;6165385;23;20163;-78
2021/09/13 07:43:01;;;;;;;2.80;2.53;;;;;;;17.48;65.24;95777.41;6165390;23;20182;-78
2021/09/13 07:45:27;;;;;;;4.25;2.28;;;;;;;17.56;65.18;95771.22;6164966;23;20183;-78
2021/09/13 07:47:52;;;;;;;4.35;2.85;;;;;;;17.61;64.85;95775.94;6141005;23;20584;-78
2021/09/13 07:50:18;;;;;;;2.42;2.25;;;;;;;17.64;64.82;95781.63;6166605;23;20150;-78
2021/09/13 07:52:43;;;;;;;4.22;2.53;;;;;;;17.63;65.78;95777.38;6166213;23;20218;-79
2021/09/13 07:55:09;;;;;;;6.88;2.65;;;;;;;17.75;64.67;95783.78;6164447;23;20186;-77
2021/09/13 07:57:34;;;;;;;3.72;2.85;;;;;;;17.82;63.58;95783.84;6165523;23;20163;-78
2021/09/13 08:00:00;;;;;;;3.15;2.58;;;;;;;17.88;64.73;95779.69;6165276;23;20151;-78
2021/09/13 08:02:25;;;;;;;2.80;2.60;;;;;;;17.88;64.71;95777.06;6141672;23;20182;-77
2021/09/13 08:04:51;;;;;;;3.13;2.58;;;;;;;17.92;65.60;95783.53;6167845;23;20215;-77
2021/09/13 08:07:16;;;;;;;2.63;2.30;;;;;;;17.97;64.75;95789.06;6166900;23;20242;-78
2021/09/13 08:09:42;;;;;;;3.35;2.20;;;;;;;18.10;64.50;95789.16;6143639;23;20244;-78
2021/09/13 08:12:07;;;;;;;4.78;2.20;;;;;;;18.19;64.03;95789.84;6167836;23;20155;-78
2021/09/13 08:14:33;;;;;;;3.38;2.60;;;;;;;18.28;62.82;95792.16;6167421;23;20181;-77
2021/09/13 08:16:58;;;;;;;3.20;2.90;;;;;;;18.22;64.07;95795.56;6167095;23;20186;-76
2021/09/13 08:19:24;;;;;;;2.70;2.50;;;;;;;18.20;62.66;95794.97;6166789;23;20187;-77
2021/09/13 08:21:49;;;;;;;4.45;3.00;;;;;;;18.31;63.08;95796.25;6167045;23;20214;-77
2021/09/13 08:24:14;;;;;;;3.25;2.70;;;;;;;18.35;63.45;95793.03;6165909;23;20179;-77
2021/09/13 08:26:40;;;;;;;3.03;2.78;;;;;;;18.54;63.61;95806.53;6168807;23;20713;-78
2021/09/13 08:29:06;;;;;;;3.80;2.50;;;;;;;18.53;63.84;95802.28;6169994;23;20162;-76
2021/09/13 08:31:32;;;;;;;3.10;2.10;;;;;;;18.75;65.35;95808.34;6172795;23;20151;-77
2021/09/13 08:33:57;;;;;;;3.25;2.92;;;;;;;18.81;65.98;95810.19;6171184;23;20151;-77
2021/09/13 08:36:23;;;;;;;6.57;3.30;;;;;;;18.87;64.38;95805.00;6147673;23;20194;-76
2021/09/13 08:38:48;;;;;;;2.90;2.70;;;;;;;18.94;65.47;95805.84;6144910;23;20156;-75
2021/09/13 08:41:13;;;;;;;3.15;2.88;;;;;;;18.92;64.87;95807.06;6170767;23;20155;-77
2021/09/13 08:43:40;;;;;;;4.85;3.45;;;;;;;19.03;64.85;95813.59;6169196;23;20292;-78
2021/09/13 08:46:17;;;;;;;6.15;3.40;;;;;;;19.11;65.36;95810.81;6145905;23;20560;-78
2021/09/13 08:48:47;;;;;;;3.65;2.80;;;;;;;19.12;64.80;95812.44;6170238;23;20147;-77
2021/09/13 08:51:31;;;;;;;2.85;2.60;;;;;;;19.20;64.46;95814.91;6169742;23;20574;-76
2021/09/13 08:54:05;;;;;;;3.45;2.80;;;;;;;19.38;64.51;95825.75;6167146;23;20585;-76
2021/09/13 08:56:39;;;;;;;3.97;2.67;;;;;;;19.42;63.36;95829.59;6167568;23;20170;-77
2021/09/13 08:59:05;;;;;;;3.03;2.70;;;;;;;19.48;63.93;95826.19;6167920;23;20205;-77
2021/09/13 09:01:31;;;;;;;3.63;3.30;;;;;;;19.56;63.19;95827.88;6143549;23;20261;-76
2021/09/13 09:03:57;;;;;;;4.45;2.80;;;;;;;19.72;62.16;95824.91;6142891;23;20201;-78
2021/09/13 09:07:05;;;;;;;3.30;2.70;;;;;;;19.79;62.84;95832.84;6166803;23;20194;-77
2021/09/13 09:09:31;;;;;;;4.20;2.92;;;;;;;19.83;63.43;95834.06;6111159;23;20565;-78
2021/09/13 09:12:02;;;;;;;4.47;3.30;;;;;;;19.85;63.41;95832.03;6137202;23;20156;-76
2021/09/13 09:14:41;;;;;;;3.40;3.10;;;;;;;19.84;65.26;95830.41;6111526;23;20155;-77
2021/09/13 09:17:19;;;;;;;3.72;3.33;;;;;;;19.92;63.32;95819.69;6113666;23;20156;-78
2021/09/13 09:19:45;;;;;;;5.93;3.22;;;;;;;19.98;63.54;95826.00;6113145;23;20196;-77
2021/09/13 09:22:38;;;;;;;3.15;2.85;;;;;;;20.06;62.08;95829.25;6112725;23;20159;-77
2021/09/13 09:25:06;;;;;;;4.20;3.65;;;;;;;20.11;63.30;95827.81;6111237;23;20196;-77
2021/09/13 09:27:32;;;;;;;4.75;3.38;;;;;;;20.01;62.73;95825.59;6105388;23;20156;-78
2021/09/13 09:30:10;;;;;;;3.67;3.17;;;;;;;19.71;63.80;95825.09;6105859;23;20243;-77
2021/09/13 09:32:36;;;;;;;4.40;3.60;;;;;;;19.89;64.68;95820.09;6130959;23;20191;-77
2021/09/13 09:35:15;;;;;;;6.50;2.95;;;;;;;20.04;64.57;95820.72;6103802;23;20187;-77
2021/09/13 09:37:41;;;;;;;3.70;3.40;;;;;;;20.08;63.87;95823.78;6104780;23;20159;-77
2021/09/13 09:40:09;;;;;;;3.20;2.88;;;;;;;20.23;64.37;95826.22;6103082;23;20170;-76
2021/09/13 09:42:36;;;;;;;5.20;4.03;;;;;;;20.34;62.31;95829.09;6105550;23;20267;-78
2021/09/13 09:45:05;;;;;;;3.10;2.90;;;;;;;20.38;62.77;95830.31;6132419;23;20214;-78
2021/09/13 09:47:31;;;;;;;5.75;3.40;;;;;;;20.25;61.89;95821.59;6161288;23;20188;-77
2021/09/13 09:49:58;;;;;;;3.45;3.15;;;;;;;20.31;62.94;95828.66;6159811;23;20151;-77
2021/09/13 09:52:30;;;;;;;5.05;3.63;;;;;;;20.30;62.17;95827.03;6135196;23;20288;-76
2021/09/13 09:55:16;;;;;;;6.10;3.58;;;;;;;20.39;63.62;95823.19;6135617;23;20187;-75
2021/09/13 09:58:10;;;;;;;4.40;3.78;;;;;;;20.05;62.73;95827.63;6135956;23;20183;-76
2021/09/13 10:00:37;;;;;;;3.83;3.22;;;;;;;20.18;61.87;95820.75;6162108;23;20178;-75
2021/09/13 10:03:03;;;;;;;4.28;3.40;;;;;;;20.21;61.93;95823.78;6136809;23;20214;-77
2021/09/13 10:05:29;;;;;;;4.03;3.53;;;;;;;20.41;61.77;95826.47;6159535;23;20523;-75
2021/09/13 10:07:55;;;;;;;4.05;3.30;;;;;;;20.51;62.05;95821.63;6136089;23;20162;-77
2021/09/13 10:10:22;;;;;;;4.22;3.17;;;;;;;20.55;61.12;95817.56;6138979;23;20159;-76
2021/09/13 10:12:48;;;;;;;4.03;3.72;;;;;;;20.40;62.88;95824.00;6164280;23;20179;-77
2021/09/13 10:15:14;;;;;;;4.55;3.45;;;;;;;20.55;61.69;95809.66;6161156;23;20171;-77
2021/09/13 10:17:39;;;;;;;5.25;4.32;;;;;;;20.51;61.27;95811.09;6164555;23;20156;-78
2021/09/13 10:20:06;;;;;;;4.88;3.90;;;;;;;20.25;60.88;95811.03;6164195;23;20162;-77
2021/09/13 10:22:37;;;;;;;4.30;3.90;;;;;;;20.22;61.36;95803.50;6140907;23;20175;-77
2021/09/13 10:25:04;;;;;;;7.88;4.47;;;;;;;20.17;61.87;95804.13;6165863;23;20199;-78
2021/09/13 10:27:46;;;;;;;4.05;3.65;;;;;;;20.43;61.28;95795.44;6168495;23;20156;-78
2021/09/13 10:30:22;;;;;;;5.07;4.32;;;;;;;20.59;60.43;95791.59;6170563;23;20146;-78
2021/09/13 10:32:50;;;;;;;5.57;3.38;;;;;;;21.02;59.37;95799.03;6170283;23;20143;-78
2021/09/13 10:35:17;;;;;;;4.30;3.90;;;;;;;21.16;58.76;95785.59;6168318;23;20175;-77
2021/09/13 10:37:51;;;;;;;4.13;3.83;;;;;;;20.89;59.56;95786.69;6169248;23;20158;-77
2021/09/13 10:40:24;;;;;;;4.35;3.85;;;;;;;21.10;59.47;95788.25;6141529;23;20173;-78
2021/09/13 10:42:57;;;;;;;6.20;3.78;;;;;;;21.23;58.71;95788.22;6168690;23;20170;-78
2021/09/13 10:45:24;;;;;;;4.30;3.90;;;;;;;21.47;56.72;95792.84;6170148;23;20181;-77
2021/09/13 10:47:57;;;;;;;5.35;3.47;;;;;;;21.75;56.12;95792.53;6169506;23;20158;-78
2021/09/13 10:50:46;;;;;;;4.18;3.78;;;;;;;22.23;56.84;95786.75;6167261;23;20593;-79
2021/09/13 10:53:21;;;;;;;4.70;3.60;;;;;;;22.19;54.60;95780.28;6143590;23;20175;-77
2021/09/13 10:55:49;;;;;;;7.15;4.18;;;;;;;22.04;53.73;95780.56;6166220;23;20198;-77
2021/09/13 10:58:19;;;;;;;5.32;3.92;;;;;;;22.04;55.20;95785.03;6143698;23;20155;-78
2021/09/13 11:00:44;;;;;;;6.25;3.97;;;;;;;22.19;54.45;95780.28;6143659;23;20590;-79
2021/09/13 11:03:22;;;;;;;4.18;3.78;;;;;;;22.14;53.51;95777.47;6169581;23;20182;-78
2021/09/13 11:06:18;;;;;;;4.00;3.65;;;;;;;22.19;54.30;95780.28;6166990;23;20633;-78
2021/09/13 11:08:44;;;;;;;4.97;4.45;;;;;;;22.36;53.26;95777.13;6168305;23;20173;-78
2021/09/13 11:11:16;;;;;;;4.82;3.67;;;;;;;21.99;54.34;95782.19;6166610;23;20219;-78
2021/09/13 11:13:44;;;;;;;4.28;3.88;;;;;;;21.97;55.28;95786.91;6165103;23;20148;-78
2021/09/13 11:16:10;;;;;;;4.45;4.05;;;;;;;22.10;54.40;95781.56;6166847;23;20175;-77
2021/09/13 11:18:37;;;;;;;3.90;3.60;;;;;;;22.04;54.67;95771.81;6168215;23;20172;-77
2021/09/13 11:21:18;;;;;;;5.18;3.92;;;;;;;21.87;53.59;95768.06;6167848;23;20158;-79
2021/09/13 11:23:44;;;;;;;4.40;4.00;;;;;;;21.60;55.02;95776.13;6166092;23;20190;-77
2021/09/13 11:26:10;;;;;;;4.22;3.80;;;;;;;21.63;55.72;95770.41;6167978;23;20194;-77
2021/09/13 11:29:23;;;;;;;4.15;3.75;;;;;;;22.22;54.16;95779.84;6168195;23;20166;-78
2021/09/13 11:31:50;;;;;;;4.32;3.92;;;;;;;22.38;52.35;95772.41;6111823;23;20160;-78
2021/09/13 11:34:16;;;;;;;4.00;3.70;;;;;;;22.47;52.17;95765.84;6085662;23;20160;-76
2021/09/13 11:36:56;;;;;;;4.17;3.87;;;;;;;22.46;49.48;95764.22;6110262;23;20287;-79
2021/09/13 11:39:22;;;;;;;3.45;3.13;;;;;;;22.29;51.28;95769.22;6133765;23;20553;-77
2021/09/13 11:42:05;;;;;;;3.83;3.53;;;;;;;22.25;50.53;95770.66;6112492;23;20160;-76